createdAt,value
2023-03-07T00:01:31.184Z,24.63
2023-03-07T00:06:32.830Z,27.42
2023-03-07T00:11:34.472Z,28.83
2023-03-07T00:16:36.145Z,28.85
2023-03-07T00:21:37.875Z,25.98
2023-03-07T00:26:39.853Z,25.85
2023-03-07T00:31:41.476Z,27.85
2023-03-07T00:36:43.185Z,31.88
2023-03-07T00:41:44.844Z,29.63
2023-03-07T00:46:46.568Z,30.58
2023-03-07T00:51:48.452Z,27.30
2023-03-07T00:56:50.851Z,27.50
2023-03-07T01:01:52.613Z,28.67
2023-03-07T01:06:54.257Z,30.20
2023-03-07T01:11:55.950Z,32.60
2023-03-07T01:16:57.932Z,33.35
2023-03-07T01:21:59.800Z,28.13
2023-03-07T01:27:01.922Z,26.63
2023-03-07T01:32:03.817Z,30.60
2023-03-07T01:37:05.713Z,30.40
2023-03-07T01:42:07.734Z,33.10
2023-03-07T01:47:09.600Z,28.85
2023-03-07T01:52:31.482Z,30.23
2023-03-07T01:57:38.372Z,30.30
2023-03-07T02:02:46.022Z,33.97
2023-03-07T02:07:54.019Z,30.45
2023-03-07T02:13:00.332Z,25.13
2023-03-07T02:18:04.374Z,28.70
2023-03-07T02:23:13.564Z,30.77
2023-03-07T02:28:17.353Z,27.35
2023-03-07T02:33:19.174Z,30.55
2023-03-07T02:38:22.684Z,28.30
2023-03-07T02:43:24.973Z,27.65
2023-03-07T02:48:26.559Z,28.95
2023-03-07T02:53:28.463Z,32.53
2023-03-07T02:58:30.188Z,33.92
2023-03-07T03:03:31.935Z,27.90
2023-03-07T03:08:33.702Z,34.17
2023-03-07T03:13:37.169Z,32.83
2023-03-07T03:18:41.500Z,29.00
2023-03-07T03:23:43.331Z,32.65
2023-03-07T03:28:45.472Z,34.92
2023-03-07T03:33:49.337Z,28.45
2023-03-07T03:38:59.301Z,28.33
2023-03-07T03:44:01.422Z,31.05
2023-03-07T03:49:05.128Z,29.83
2023-03-07T03:54:07.964Z,29.02
2023-03-07T03:59:11.111Z,33.60
2023-03-07T04:04:12.835Z,30.42
2023-03-07T04:09:15.207Z,29.42
2023-03-07T04:14:21.039Z,30.95
2023-03-07T04:19:23.033Z,30.15
2023-03-07T04:24:25.845Z,29.50
2023-03-07T04:29:27.610Z,32.15
2023-03-07T04:34:36.475Z,27.63
2023-03-07T04:39:38.612Z,30.60
2023-03-07T04:44:42.652Z,31.17
2023-03-07T04:49:44.429Z,32.08
2023-03-07T04:54:46.327Z,32.83
2023-03-07T04:59:47.992Z,32.03
2023-03-07T05:04:50.324Z,30.13
2023-03-07T05:09:52.109Z,29.42
2023-03-07T05:14:53.869Z,33.70
2023-03-07T05:19:56.133Z,29.55
2023-03-07T05:24:58.644Z,33.10
2023-03-07T05:30:01.092Z,29.73
2023-03-07T05:35:04.206Z,29.63
2023-03-07T05:40:15.781Z,31.02
2023-03-07T05:45:21.238Z,27.13
2023-03-07T05:50:23.976Z,34.75
2023-03-07T05:55:25.789Z,35.75
2023-03-07T06:00:28.331Z,33.72
2023-03-07T06:05:34.456Z,39.97
2023-03-07T06:10:40.028Z,30.95
2023-03-07T06:15:44.237Z,31.20
2023-03-07T06:20:58.774Z,28.95
2023-03-07T06:26:03.181Z,30.27
2023-03-07T06:31:12.831Z,25.30
2023-03-07T06:36:17.268Z,27.92
2023-03-07T06:41:22.371Z,31.15
2023-03-07T06:46:25.669Z,33.88
2023-03-07T06:51:28.620Z,34.60
2023-03-07T06:56:34.328Z,25.65
2023-03-07T07:01:37.421Z,30.15
2023-03-07T07:06:39.155Z,23.27
2023-03-07T07:11:40.928Z,27.85
2023-03-07T07:16:46.253Z,36.10
2023-03-07T07:21:48.060Z,29.38
2023-03-07T07:26:49.718Z,25.38
2023-03-07T07:31:51.531Z,26.92
2023-03-07T07:36:54.681Z,22.60
2023-03-07T07:41:56.492Z,19.98
2023-03-07T07:47:01.584Z,24.55
2023-03-07T07:52:03.464Z,24.20
2023-03-07T07:57:05.369Z,23.67
2023-03-07T08:02:07.405Z,23.25
2023-03-07T08:07:09.124Z,24.45
2023-03-07T08:12:12.547Z,24.35
2023-03-07T08:17:14.464Z,27.77
2023-03-07T08:22:16.971Z,27.52
2023-03-07T08:27:18.611Z,24.63
2023-03-07T08:32:20.257Z,25.58
2023-03-07T08:37:21.924Z,30.05
2023-03-07T08:42:23.578Z,28.83
2023-03-07T08:47:25.390Z,24.10
2023-03-07T08:52:27.075Z,28.10
2023-03-07T08:57:28.719Z,29.33
2023-03-07T09:02:30.347Z,25.58
2023-03-07T09:07:32.157Z,28.95
2023-03-07T09:12:34.563Z,29.17
2023-03-07T09:17:36.500Z,24.42
2023-03-07T09:22:38.445Z,28.52
2023-03-07T09:27:40.118Z,31.80
2023-03-07T09:32:42.690Z,28.42
2023-03-07T09:37:44.326Z,25.77
2023-03-07T09:42:55.899Z,26.75
2023-03-07T09:48:35.320Z,26.80
2023-03-07T09:53:39.076Z,20.40
2023-03-07T09:58:45.214Z,26.75
2023-03-07T10:03:54.646Z,23.05
2023-03-07T10:08:59.816Z,22.83
2023-03-07T10:14:09.085Z,23.17
2023-03-07T10:19:35.955Z,25.85
2023-03-07T10:25:11.711Z,23.20
2023-03-07T10:30:18.015Z,23.23
2023-03-07T10:35:22.197Z,22.05
2023-03-07T10:40:28.724Z,23.55
2023-03-07T10:45:32.868Z,20.77
2023-03-07T10:50:55.454Z,17.08
2023-03-07T10:56:11.542Z,20.80
2023-03-07T11:01:17.690Z,15.95
2023-03-07T11:06:50.990Z,19.05
2023-03-07T11:12:05.780Z,18.23
2023-03-07T11:17:19.976Z,18.52
2023-03-07T11:22:23.937Z,17.23
2023-03-07T11:27:33.698Z,19.85
2023-03-07T11:32:40.131Z,26.13
2023-03-07T11:37:52.597Z,18.38
2023-03-07T11:43:21.997Z,19.45
2023-03-07T11:48:52.337Z,16.20
2023-03-07T11:54:00.106Z,10.90
2023-03-07T11:59:42.127Z,9.27
2023-03-07T12:05:04.149Z,7.32
2023-03-07T12:10:29.217Z,6.38
2023-03-07T12:16:08.003Z,6.88
2023-03-07T12:21:46.866Z,7.88
2023-03-07T12:27:07.174Z,12.55
2023-03-07T12:32:14.464Z,9.55
2023-03-07T12:37:25.447Z,13.70
2023-03-07T12:42:38.468Z,31.27
2023-03-07T12:47:59.794Z,12.20
2023-03-07T12:53:07.507Z,19.40
2023-03-07T12:58:24.369Z,12.82
2023-03-07T13:03:55.585Z,27.98
2023-03-07T13:09:04.112Z,16.27
2023-03-07T13:14:06.009Z,49.30
2023-03-07T13:19:35.684Z,19.30
2023-03-07T13:30:03.798Z,23.90
2023-03-07T13:35:09.761Z,22.02
2023-03-07T13:40:39.632Z,22.10
2023-03-07T13:45:41.245Z,9.13
2023-03-07T13:50:42.976Z,20.40
2023-03-07T13:55:47.571Z,32.95
2023-03-07T14:01:02.896Z,16.48
2023-03-07T14:06:17.206Z,12.70
2023-03-07T14:11:30.655Z,9.57
2023-03-07T14:16:35.226Z,11.45
2023-03-07T14:22:00.914Z,17.15
2023-03-07T14:27:12.792Z,10.00
2023-03-07T14:32:24.471Z,14.90
2023-03-07T14:37:30.884Z,8.90
2023-03-07T14:42:55.027Z,13.45
2023-03-07T14:48:08.931Z,14.85
2023-03-07T14:53:19.634Z,17.70
2023-03-07T14:58:24.010Z,11.68
2023-03-07T15:03:26.150Z,11.93
2023-03-07T15:08:38.487Z,14.05
2023-03-07T15:13:58.548Z,12.75
2023-03-07T15:19:24.370Z,12.27
2023-03-07T15:24:31.234Z,11.55
2023-03-07T15:29:33.598Z,12.98
2023-03-07T15:34:37.648Z,13.65
2023-03-07T15:39:39.308Z,15.85
2023-03-07T15:44:40.916Z,16.42
2023-03-07T15:49:58.803Z,15.13
2023-03-07T15:55:05.417Z,16.42
2023-03-07T16:00:20.441Z,15.20
2023-03-07T16:05:23.012Z,19.58
2023-03-07T16:10:28.401Z,18.48
2023-03-07T16:15:30.239Z,21.02
2023-03-07T16:20:31.804Z,31.23
2023-03-07T16:25:34.045Z,26.48
2023-03-07T16:30:35.713Z,30.67
2023-03-07T16:35:37.368Z,23.50
2023-03-07T16:40:44.590Z,28.50
2023-03-07T16:45:46.296Z,29.65
2023-03-07T16:50:47.952Z,25.30
2023-03-07T16:55:50.922Z,32.78
2023-03-07T17:00:53.733Z,26.80
2023-03-07T17:05:55.460Z,28.02
2023-03-07T17:10:57.513Z,29.90
2023-03-07T17:15:59.159Z,34.30
2023-03-07T17:21:00.859Z,31.30
2023-03-07T17:26:02.547Z,55.50
2023-03-07T17:31:04.316Z,31.50
2023-03-07T17:36:06.424Z,31.10
2023-03-07T17:41:08.142Z,31.95
2023-03-07T17:46:11.537Z,33.40
2023-03-07T17:51:13.494Z,29.40
2023-03-07T17:56:15.153Z,32.70
2023-03-07T18:01:16.841Z,29.27
2023-03-07T18:06:18.549Z,31.60
2023-03-07T18:11:20.389Z,32.85
2023-03-07T18:16:22.212Z,33.63
2023-03-07T18:21:23.961Z,30.17
2023-03-07T18:26:25.797Z,28.98
2023-03-07T18:31:30.324Z,36.78
2023-03-07T18:36:31.977Z,29.75
2023-03-07T18:41:33.596Z,27.83
2023-03-07T18:46:37.181Z,34.63
2023-03-07T18:51:39.507Z,30.85
2023-03-07T18:56:42.598Z,32.13
2023-03-07T19:01:45.000Z,29.85
2023-03-07T19:06:47.642Z,35.33
2023-03-07T19:11:49.278Z,33.25
2023-03-07T19:16:50.997Z,30.20
2023-03-07T19:21:52.914Z,30.77
2023-03-07T19:26:54.493Z,35.75
2023-03-07T19:31:56.094Z,34.10
2023-03-07T19:36:57.801Z,36.05
2023-03-07T19:41:59.663Z,42.42
2023-03-07T19:47:01.320Z,35.05
2023-03-07T19:52:03.022Z,34.17
2023-03-07T19:57:04.689Z,31.60
2023-03-07T20:02:06.957Z,36.35
2023-03-07T20:07:08.678Z,29.25
2023-03-07T20:12:10.461Z,32.22
2023-03-07T20:17:12.407Z,35.13
2023-03-07T20:22:14.163Z,50.90
2023-03-07T20:27:20.393Z,36.78
2023-03-07T20:32:23.185Z,36.35
2023-03-07T20:37:24.857Z,34.58
2023-03-07T20:42:27.134Z,31.98
2023-03-07T20:47:28.821Z,29.45
2023-03-07T20:52:30.491Z,36.03
2023-03-07T20:57:32.084Z,29.25
2023-03-07T21:02:33.669Z,33.97
2023-03-07T21:07:35.251Z,29.45
2023-03-07T21:12:36.915Z,35.08
2023-03-07T21:17:38.625Z,36.08
2023-03-07T21:22:40.662Z,36.33
2023-03-07T21:27:42.257Z,39.65
2023-03-07T21:32:43.845Z,29.42
2023-03-07T21:37:45.581Z,32.92
2023-03-07T21:42:47.633Z,34.42
2023-03-07T21:47:53.318Z,31.90
2023-03-07T21:52:55.152Z,33.25
2023-03-07T21:57:56.768Z,32.53
2023-03-07T22:02:59.103Z,35.35
2023-03-07T22:08:00.730Z,27.85
2023-03-07T22:13:02.371Z,34.35
2023-03-07T22:18:04.172Z,35.72
2023-03-07T22:23:05.817Z,35.05
2023-03-07T22:28:07.543Z,36.63
2023-03-07T22:33:09.165Z,38.03
2023-03-07T22:38:10.833Z,43.00
2023-03-07T22:43:12.406Z,31.38
2023-03-07T22:48:15.983Z,33.25
2023-03-07T22:53:17.695Z,36.95
2023-03-07T22:58:19.307Z,37.97
2023-03-07T23:03:21.083Z,37.17
2023-03-07T23:08:22.721Z,37.58
2023-03-07T23:13:24.342Z,32.63
2023-03-07T23:18:25.974Z,35.70
2023-03-07T23:23:27.576Z,43.60
2023-03-07T23:28:29.511Z,42.70
2023-03-07T23:33:31.187Z,49.15
2023-03-07T23:38:32.816Z,39.28
2023-03-07T23:43:34.762Z,39.35
2023-03-07T23:48:36.428Z,40.40
2023-03-07T23:53:38.070Z,40.78
2023-03-07T23:58:40.064Z,55.30
